createdAt,value
2022-09-15T04:46:02.320Z,12.54
2022-09-15T04:47:03.391Z,12.53
2022-09-15T04:48:03.305Z,12.53
2022-09-15T04:49:03.285Z,12.54
2022-09-15T04:50:03.268Z,12.56
2022-09-15T04:51:03.324Z,12.57
2022-09-15T04:52:05.653Z,12.59
2022-09-15T04:53:03.278Z,12.57
2022-09-15T04:54:03.232Z,12.59
2022-09-15T04:55:03.221Z,12.59
2022-09-15T04:56:03.202Z,12.59
2022-09-15T04:57:03.206Z,12.62
2022-09-15T04:58:03.197Z,12.62
2022-09-15T04:59:04.331Z,12.60
2022-09-15T05:00:03.163Z,12.59
2022-09-15T05:01:03.193Z,12.57
2022-09-15T05:02:03.294Z,12.54
2022-09-15T05:03:03.153Z,12.57
2022-09-15T05:04:03.129Z,12.59
2022-09-15T05:05:03.116Z,12.64
2022-09-15T05:06:03.107Z,12.62
2022-09-15T05:07:03.095Z,12.62
2022-09-15T05:08:03.096Z,12.62
2022-09-15T05:09:07.641Z,12.65
2022-09-15T05:10:03.069Z,12.68
2022-09-15T05:11:03.089Z,12.70
2022-09-15T05:12:03.035Z,12.70
2022-09-15T05:13:03.045Z,12.68
2022-09-15T05:14:03.023Z,12.68
2022-09-15T05:15:03.009Z,12.68
2022-09-15T05:16:03.048Z,12.68
2022-09-15T05:17:02.994Z,12.68
2022-09-15T05:18:02.987Z,12.70
2022-09-15T05:19:02.978Z,12.71
2022-09-15T05:20:02.954Z,12.71
2022-09-15T05:21:02.944Z,12.68
2022-09-15T05:22:02.928Z,12.68
2022-09-15T05:23:02.935Z,12.70
2022-09-15T05:24:02.907Z,12.71
2022-09-15T05:25:02.904Z,12.74
2022-09-15T05:26:02.886Z,12.74
2022-09-15T05:27:02.876Z,12.78
2022-09-15T05:28:02.874Z,12.78
2022-09-15T05:29:02.855Z,12.83
2022-09-15T05:30:35.279Z,12.86
2022-09-15T05:31:02.910Z,12.87
2022-09-15T05:32:02.821Z,12.87
2022-09-15T05:33:02.832Z,12.89
2022-09-15T05:34:02.801Z,12.90
2022-09-15T05:35:02.790Z,12.92
2022-09-15T05:36:02.775Z,12.90
2022-09-15T05:37:02.765Z,12.89
2022-09-15T05:38:02.882Z,12.93
2022-09-15T05:39:02.746Z,12.93
2022-09-15T05:40:07.657Z,12.97
2022-09-15T05:41:02.731Z,12.96
2022-09-15T05:42:02.713Z,13.01
2022-09-15T05:43:02.703Z,13.00
2022-09-15T05:44:02.713Z,13.01
2022-09-15T05:45:02.686Z,13.04
2022-09-15T05:46:02.739Z,13.05
2022-09-15T05:47:02.660Z,13.07
2022-09-15T05:48:02.644Z,13.07
2022-09-15T05:49:02.652Z,13.07
2022-09-15T05:50:02.623Z,13.04
2022-09-15T05:51:02.639Z,13.04
2022-09-15T05:52:02.607Z,13.03
2022-09-15T05:53:02.620Z,13.01
2022-09-15T05:54:02.595Z,13.00
2022-09-15T05:55:02.591Z,13.01
2022-09-15T05:56:02.561Z,13.04
2022-09-15T05:57:02.558Z,13.07
2022-09-15T05:58:02.546Z,13.12
2022-09-15T05:59:02.554Z,13.17
2022-09-15T06:00:02.540Z,13.22
2022-09-15T06:01:02.527Z,13.19
2022-09-15T06:02:02.611Z,13.23
2022-09-15T06:03:02.535Z,13.28
2022-09-15T06:04:02.492Z,13.30
2022-09-15T06:05:02.470Z,13.30
2022-09-15T06:06:02.450Z,13.26
2022-09-15T06:07:02.452Z,13.28
2022-09-15T06:08:02.431Z,13.32
2022-09-15T06:09:02.813Z,13.36
2022-09-15T06:10:02.408Z,13.36
2022-09-15T06:11:02.404Z,13.36
2022-09-15T06:12:02.387Z,13.39
2022-09-15T06:13:02.391Z,13.38
2022-09-15T06:14:02.380Z,13.39
2022-09-15T06:15:02.363Z,13.46
2022-09-15T06:16:02.428Z,13.51
2022-09-15T06:17:02.344Z,13.51
2022-09-15T06:18:02.325Z,13.55
2022-09-15T06:19:02.336Z,13.57
2022-09-15T06:20:02.309Z,13.60
2022-09-15T06:21:02.302Z,13.57
2022-09-15T06:22:02.290Z,13.59
2022-09-15T06:23:02.279Z,13.63
2022-09-15T06:24:02.280Z,13.59
2022-09-15T06:25:02.266Z,13.57
2022-09-15T06:26:02.243Z,13.55
2022-09-15T06:27:02.237Z,13.54
2022-09-15T06:28:02.226Z,13.59
2022-09-15T06:29:02.228Z,13.54
2022-09-15T06:30:02.199Z,13.52
2022-09-15T06:31:02.197Z,13.60
2022-09-15T06:32:02.254Z,13.60
2022-09-15T06:33:02.181Z,13.62
2022-09-15T06:34:02.184Z,13.67
2022-09-15T06:35:02.153Z,13.70
2022-09-15T06:36:02.139Z,13.69
2022-09-15T06:37:02.132Z,13.77
2022-09-15T06:38:02.123Z,13.82
2022-09-15T06:39:02.126Z,13.84
2022-09-15T06:40:02.149Z,13.81
2022-09-15T06:41:02.093Z,13.78
2022-09-15T06:42:03.699Z,13.79
2022-09-15T06:43:02.068Z,13.78
2022-09-15T06:44:02.069Z,13.84
2022-09-15T06:45:02.051Z,13.92
2022-09-15T06:46:02.077Z,13.89
2022-09-15T06:47:02.029Z,13.91
2022-09-15T06:48:23.504Z,13.92
2022-09-15T06:49:02.031Z,13.95
2022-09-15T06:50:01.998Z,13.85
2022-09-15T06:51:01.986Z,13.87
2022-09-15T06:52:01.978Z,13.89
2022-09-15T06:53:01.966Z,13.95
2022-09-15T06:54:01.981Z,13.96
2022-09-15T06:55:01.947Z,13.95
2022-09-15T06:56:01.929Z,13.97
2022-09-15T06:57:01.923Z,13.99
2022-09-15T06:58:01.905Z,14.02
2022-09-15T06:59:01.920Z,13.99
2022-09-15T07:00:01.890Z,13.97
2022-09-15T07:01:01.887Z,14.03
2022-09-15T07:02:05.065Z,14.00
2022-09-15T07:03:02.000Z,14.04
2022-09-15T07:04:01.865Z,14.17
2022-09-15T07:05:01.845Z,14.20
2022-09-15T07:06:01.828Z,14.28
2022-09-15T07:07:01.816Z,14.29
2022-09-15T07:08:01.807Z,14.25
2022-09-15T07:09:01.846Z,14.25
2022-09-15T07:10:01.779Z,14.24
2022-09-15T07:11:01.781Z,14.27
2022-09-15T07:12:01.760Z,14.37
2022-09-15T07:13:01.759Z,14.46
2022-09-15T07:14:01.754Z,14.47
2022-09-15T07:15:01.743Z,14.50
2022-09-15T07:16:01.800Z,14.47
2022-09-15T07:17:01.716Z,14.42
2022-09-15T07:18:01.693Z,14.42
2022-09-15T07:19:01.706Z,14.39
2022-09-15T07:20:01.696Z,14.39
2022-09-15T07:21:01.675Z,14.37
2022-09-15T07:22:01.658Z,14.39
2022-09-15T07:23:01.655Z,14.42
2022-09-15T07:24:06.419Z,14.45
2022-09-15T07:25:01.642Z,14.42
2022-09-15T07:26:01.619Z,14.42
2022-09-15T07:27:01.609Z,14.33
2022-09-15T07:28:01.595Z,14.32
2022-09-15T07:29:01.601Z,14.40
2022-09-15T07:30:01.571Z,14.42
2022-09-15T07:31:01.567Z,14.46
2022-09-15T07:32:01.612Z,14.47
2022-09-15T07:33:01.554Z,14.55
2022-09-15T07:34:01.545Z,14.64
2022-09-15T07:35:01.521Z,14.65
2022-09-15T07:36:01.509Z,14.68
2022-09-15T07:37:01.505Z,14.77
2022-09-15T07:38:01.489Z,14.80
2022-09-15T07:39:01.503Z,14.89
2022-09-15T07:40:01.535Z,14.86
2022-09-15T07:41:01.463Z,14.95
2022-09-15T07:42:01.451Z,14.94
2022-09-15T07:43:01.443Z,14.84
2022-09-15T07:44:01.444Z,14.84
2022-09-15T07:45:01.425Z,14.77
2022-09-15T07:46:01.519Z,14.72
2022-09-15T07:47:01.400Z,14.78
2022-09-15T07:48:01.384Z,14.78
2022-09-15T07:49:01.394Z,14.77
2022-09-15T07:50:01.366Z,14.72
2022-09-15T07:51:01.365Z,14.75
2022-09-15T07:52:01.344Z,14.73
2022-09-15T07:53:01.333Z,14.75
2022-09-15T07:54:01.337Z,14.78
2022-09-15T07:55:01.314Z,14.81
2022-09-15T07:56:01.303Z,14.70
2022-09-15T07:57:01.299Z,14.69
2022-09-15T07:58:01.291Z,14.72
2022-09-15T07:59:01.267Z,14.78
2022-09-15T08:00:01.275Z,14.83
2022-09-15T08:01:01.363Z,14.94
2022-09-15T08:02:01.332Z,15.07
2022-09-15T08:03:01.223Z,15.16
2022-09-15T08:04:01.225Z,15.20
2022-09-15T08:05:01.216Z,15.31
2022-09-15T08:06:01.220Z,15.29
2022-09-15T08:07:01.187Z,15.31
2022-09-15T08:08:01.176Z,15.36
2022-09-15T08:09:01.268Z,15.38
2022-09-15T08:10:01.169Z,15.35
2022-09-15T08:11:01.144Z,15.32
2022-09-15T08:12:01.138Z,15.34
2022-09-15T08:13:01.122Z,15.29
2022-09-15T08:14:01.121Z,15.21
2022-09-15T08:15:01.114Z,15.36
2022-09-15T08:16:01.175Z,15.38
2022-09-15T08:17:01.080Z,15.54
2022-09-15T08:18:01.074Z,15.56
2022-09-15T08:19:01.055Z,15.64
2022-09-15T08:20:01.064Z,15.68
2022-09-15T08:21:01.038Z,15.75
2022-09-15T08:22:01.028Z,15.71
2022-09-15T08:23:01.020Z,15.75
2022-09-15T08:24:01.012Z,15.75
2022-09-15T08:25:01.025Z,15.75
2022-09-15T08:26:00.984Z,15.80
2022-09-15T08:27:00.979Z,15.84
2022-09-15T08:28:00.965Z,15.84
2022-09-15T08:29:00.952Z,15.89
2022-09-15T08:30:00.958Z,16.01
2022-09-15T08:31:00.979Z,16.05
2022-09-15T08:32:00.925Z,16.01
2022-09-15T08:33:00.914Z,15.86
2022-09-15T08:34:00.902Z,15.78
2022-09-15T08:35:00.904Z,15.83
2022-09-15T08:36:00.882Z,15.92
2022-09-15T08:37:00.869Z,16.05
2022-09-15T08:38:00.859Z,16.28
2022-09-15T08:39:00.846Z,16.35
2022-09-15T08:40:00.889Z,16.45
2022-09-15T08:41:00.826Z,16.39
2022-09-15T08:42:00.819Z,16.38
2022-09-15T08:43:00.801Z,16.41
2022-09-15T08:44:00.802Z,16.39
2022-09-15T08:45:00.792Z,16.34
2022-09-15T08:46:00.848Z,16.39
2022-09-15T08:47:00.759Z,16.34
2022-09-15T08:48:00.756Z,16.33
2022-09-15T08:49:02.963Z,16.35
2022-09-15T08:50:00.751Z,16.35
2022-09-15T08:51:00.711Z,16.21
2022-09-15T08:52:00.715Z,16.24
2022-09-15T08:53:00.692Z,16.11
2022-09-15T08:54:00.688Z,16.08
2022-09-15T08:55:00.691Z,16.09
2022-09-15T08:56:00.666Z,16.14
2022-09-15T08:57:00.653Z,16.23
2022-09-15T08:58:00.647Z,16.35
2022-09-15T08:59:00.633Z,16.56
2022-09-15T09:00:00.643Z,16.58
2022-09-15T09:01:00.609Z,16.70
2022-09-15T09:02:00.648Z,16.93
2022-09-15T09:03:00.599Z,17.22
2022-09-15T09:04:00.585Z,17.37
2022-09-15T09:05:00.588Z,17.55
2022-09-15T09:06:00.561Z,17.55
2022-09-15T09:07:00.549Z,17.66
2022-09-15T09:08:00.536Z,17.68
2022-09-15T09:09:00.519Z,17.64
2022-09-15T09:10:00.545Z,17.48
2022-09-15T09:11:00.504Z,17.43
2022-09-15T09:12:00.495Z,17.30
2022-09-15T09:13:00.485Z,17.12
2022-09-15T09:14:00.477Z,17.06
2022-09-15T09:15:00.462Z,17.00
2022-09-15T09:16:00.531Z,16.79
2022-09-15T09:17:00.442Z,16.71
2022-09-15T09:18:00.429Z,16.60
2022-09-15T09:19:00.415Z,16.61
2022-09-15T09:20:00.414Z,16.58
2022-09-15T09:21:00.412Z,16.53
2022-09-15T09:22:00.390Z,16.52
2022-09-15T09:23:00.373Z,16.63
2022-09-15T09:24:00.368Z,16.61
2022-09-15T09:25:05.913Z,16.52
2022-09-15T09:26:00.367Z,16.41
2022-09-15T09:27:00.340Z,16.42
2022-09-15T09:28:00.325Z,16.43
2022-09-15T09:29:00.312Z,16.52
2022-09-15T09:30:00.318Z,16.70
2022-09-15T09:31:00.355Z,16.78
2022-09-15T09:32:00.281Z,16.96
2022-09-15T09:33:00.267Z,16.97
2022-09-15T09:34:00.274Z,17.15
2022-09-15T09:35:00.247Z,17.12
2022-09-15T09:36:00.254Z,17.04
2022-09-15T09:37:00.225Z,16.97
2022-09-15T09:38:00.218Z,16.93
2022-09-15T09:39:00.202Z,16.76
2022-09-15T09:40:00.306Z,16.70
2022-09-15T09:41:02.538Z,16.66
2022-09-15T09:42:00.182Z,16.73
2022-09-15T09:43:00.165Z,16.70
2022-09-15T09:44:00.161Z,16.83
2022-09-15T09:45:00.143Z,16.86
2022-09-15T09:46:00.250Z,17.06
2022-09-15T09:47:00.120Z,17.15
2022-09-15T09:48:01.806Z,17.28
2022-09-15T09:49:00.100Z,17.33
2022-09-15T09:50:00.104Z,17.43
2022-09-15T09:51:00.091Z,17.64
2022-09-15T09:52:00.138Z,17.72
2022-09-15T09:53:00.061Z,17.99
2022-09-15T09:54:00.056Z,18.08
2022-09-15T09:55:00.035Z,18.11
2022-09-15T09:56:00.050Z,18.00
2022-09-15T09:57:00.014Z,17.97
2022-09-15T09:58:00.006Z,17.86
2022-09-15T09:58:59.999Z,17.66
2022-09-15T09:59:59.987Z,17.44
2022-09-15T10:01:00.017Z,17.40
2022-09-15T10:01:59.972Z,17.62
2022-09-15T10:02:59.954Z,17.86
2022-09-15T10:03:59.949Z,18.35
2022-09-15T10:04:59.954Z,18.39
2022-09-15T10:05:59.941Z,19.21
2022-09-15T10:06:59.910Z,19.83
2022-09-15T10:07:59.904Z,20.05
2022-09-15T10:08:59.886Z,19.78
2022-09-15T10:09:59.881Z,20.21
2022-09-15T10:10:59.883Z,20.23
2022-09-15T10:11:59.862Z,20.26
2022-09-15T10:12:59.851Z,19.81
2022-09-15T10:13:59.847Z,19.23
2022-09-15T10:14:59.825Z,19.04
2022-09-15T10:15:59.834Z,18.85
2022-09-15T10:16:59.869Z,18.73
2022-09-15T10:17:59.804Z,19.02
2022-09-15T10:18:59.785Z,19.10
2022-09-15T10:19:59.781Z,19.22
2022-09-15T10:20:59.789Z,18.58
2022-09-15T10:21:59.758Z,18.15
2022-09-15T10:22:59.748Z,18.15
2022-09-15T10:23:59.741Z,18.26
2022-09-15T10:24:59.726Z,18.27
2022-09-15T10:26:00.467Z,18.18
2022-09-15T10:26:59.699Z,18.03
2022-09-15T10:27:59.703Z,17.99
2022-09-15T10:28:59.682Z,17.93
2022-09-15T10:29:59.673Z,17.84
2022-09-15T10:30:59.655Z,17.84
2022-09-15T10:31:59.762Z,17.81
2022-09-15T10:32:59.636Z,17.75
2022-09-15T10:33:59.632Z,17.72
2022-09-15T10:34:59.616Z,17.79
2022-09-15T10:35:59.614Z,17.89
2022-09-15T10:36:59.614Z,17.64
2022-09-15T10:37:59.590Z,17.72
2022-09-15T10:38:59.576Z,17.87
2022-09-15T10:39:59.663Z,17.77
2022-09-15T10:40:59.566Z,17.90
2022-09-15T10:41:59.562Z,17.97
2022-09-15T10:42:59.533Z,17.86
2022-09-15T10:43:59.863Z,17.79
2022-09-15T10:44:59.532Z,17.81
2022-09-15T10:45:59.566Z,17.63
2022-09-15T10:46:59.515Z,17.56
2022-09-15T10:47:59.489Z,17.71
2022-09-15T10:48:59.479Z,17.81
2022-09-15T10:49:59.464Z,17.86
2022-09-15T10:50:59.452Z,17.86
2022-09-15T10:51:59.462Z,18.00
2022-09-15T10:52:59.436Z,18.15
2022-09-15T10:53:59.587Z,18.35
2022-09-15T10:54:59.408Z,18.69
2022-09-15T10:55:59.411Z,19.14
2022-09-15T10:56:59.436Z,18.78
2022-09-15T10:57:59.386Z,19.18
2022-09-15T10:58:59.400Z,19.63
2022-09-15T10:59:59.386Z,19.68
2022-09-15T11:00:59.392Z,19.39
2022-09-15T11:01:59.395Z,18.92
2022-09-15T11:02:59.347Z,18.84
2022-09-15T11:03:59.325Z,18.50
2022-09-15T11:04:59.306Z,18.37
2022-09-15T11:05:59.321Z,18.37
2022-09-15T11:06:59.306Z,18.21
2022-09-15T11:07:59.284Z,18.03
2022-09-15T11:08:59.283Z,18.27
2022-09-15T11:09:59.261Z,18.37
2022-09-15T11:10:59.235Z,18.35
2022-09-15T11:11:59.257Z,18.45
2022-09-15T11:12:59.231Z,18.36
2022-09-15T11:13:59.226Z,18.12
2022-09-15T11:14:59.203Z,18.02
2022-09-15T11:15:59.233Z,18.02
2022-09-15T11:16:59.196Z,18.00
2022-09-15T11:17:59.186Z,18.10
2022-09-15T11:18:59.169Z,18.12
2022-09-15T11:19:59.158Z,18.27
2022-09-15T11:20:59.149Z,18.27
2022-09-15T11:21:59.167Z,18.37
2022-09-15T11:22:59.123Z,18.42
2022-09-15T11:23:59.122Z,18.30
2022-09-15T11:24:59.109Z,18.32
2022-09-15T11:25:59.108Z,18.80
2022-09-15T11:26:59.097Z,19.02
2022-09-15T11:27:59.079Z,18.81
2022-09-15T11:28:59.062Z,18.63
2022-09-15T11:29:59.058Z,18.70
2022-09-15T11:30:59.058Z,18.87
2022-09-15T11:31:59.409Z,18.69
2022-09-15T11:32:59.019Z,18.47
2022-09-15T11:33:59.018Z,18.52
2022-09-15T11:34:59.000Z,18.69
2022-09-15T11:35:58.995Z,18.84
2022-09-15T11:36:58.989Z,19.21
2022-09-15T11:37:58.974Z,19.44
2022-09-15T11:38:58.958Z,19.94
2022-09-15T11:39:58.991Z,19.47
2022-09-15T11:40:58.940Z,19.71
2022-09-15T11:41:58.946Z,19.98
2022-09-15T11:42:58.914Z,20.67
2022-09-15T11:43:58.915Z,20.62
2022-09-15T11:44:58.894Z,20.33
2022-09-15T11:45:58.888Z,20.89
2022-09-15T11:46:58.946Z,21.12
2022-09-15T11:47:58.870Z,21.74
2022-09-15T11:48:58.851Z,20.80
2022-09-15T11:49:58.844Z,20.03
2022-09-15T11:50:58.836Z,19.96
2022-09-15T11:51:58.828Z,20.23
2022-09-15T11:52:58.833Z,20.29
2022-09-15T11:53:58.830Z,20.58
2022-09-15T11:54:58.792Z,20.05
2022-09-15T11:55:58.781Z,21.12
2022-09-15T11:56:58.763Z,21.96
2022-09-15T11:57:58.773Z,21.86
2022-09-15T11:58:58.747Z,21.84
2022-09-15T11:59:58.742Z,22.40
2022-09-15T12:00:58.723Z,22.60
2022-09-15T12:01:58.842Z,21.14
2022-09-15T12:02:58.824Z,21.16
2022-09-15T12:03:58.702Z,20.84
2022-09-15T12:04:58.678Z,20.89
2022-09-15T12:05:58.671Z,21.31
2022-09-15T12:07:58.707Z,21.35
2022-09-15T12:08:58.639Z,21.46
2022-09-15T12:09:58.630Z,20.95
2022-09-15T12:10:58.632Z,21.40
2022-09-15T12:11:58.609Z,21.65
2022-09-15T12:12:58.595Z,22.51
2022-09-15T12:13:58.585Z,23.57
2022-09-15T12:14:58.579Z,22.24
2022-09-15T12:15:58.625Z,21.12
2022-09-15T12:16:58.558Z,20.94
2022-09-15T12:17:58.566Z,20.80
2022-09-15T12:18:58.536Z,20.59
2022-09-15T12:19:58.516Z,19.86
2022-09-15T12:20:58.523Z,19.41
2022-09-15T12:21:58.500Z,19.11
2022-09-15T12:22:58.494Z,18.91
2022-09-15T12:23:58.477Z,18.69
2022-09-15T12:25:00.902Z,18.65
2022-09-15T12:25:58.464Z,18.63
2022-09-15T12:26:58.443Z,18.47
2022-09-15T12:27:58.435Z,18.26
2022-09-15T12:28:58.427Z,17.96
2022-09-15T12:29:58.424Z,17.78
2022-09-15T12:30:58.477Z,17.72
2022-09-15T12:31:58.387Z,17.64
2022-09-15T12:32:58.381Z,17.40
2022-09-15T12:33:58.363Z,17.28
2022-09-15T12:34:58.360Z,17.21
2022-09-15T12:35:58.359Z,17.11
2022-09-15T12:37:58.320Z,16.98
2022-09-15T12:38:58.317Z,16.98
2022-09-15T12:39:58.390Z,16.82
2022-09-15T12:40:58.329Z,16.76
2022-09-15T12:41:58.285Z,16.71
2022-09-15T12:42:58.271Z,16.63
2022-09-15T12:43:58.258Z,16.53
2022-09-15T12:44:58.253Z,16.34
2022-09-15T12:45:58.369Z,16.24
2022-09-15T12:46:58.233Z,16.05
2022-09-15T12:47:58.214Z,16.04
2022-09-15T12:48:58.214Z,15.96
2022-09-15T12:49:58.198Z,15.96
2022-09-15T12:50:58.208Z,15.93
2022-09-15T12:51:58.174Z,15.96
2022-09-15T12:52:58.169Z,15.97
2022-09-15T12:53:58.156Z,16.01
2022-09-15T12:54:58.146Z,16.08
2022-09-15T12:55:58.149Z,16.20
2022-09-15T12:56:58.128Z,16.31
2022-09-15T12:57:58.112Z,16.48
2022-09-15T12:58:58.107Z,16.53
2022-09-15T12:59:58.117Z,16.68
2022-09-15T13:01:16.947Z,16.61
2022-09-15T13:01:58.163Z,16.58
2022-09-15T13:02:58.149Z,16.53
2022-09-15T13:03:58.074Z,16.66
2022-09-15T13:04:58.061Z,16.75
2022-09-15T13:05:58.050Z,16.94
2022-09-15T13:06:58.024Z,16.97
2022-09-15T13:07:58.015Z,17.07
2022-09-15T13:08:58.008Z,17.08
2022-09-15T13:09:57.992Z,17.14
2022-09-15T13:10:58.002Z,17.14
2022-09-15T13:11:57.973Z,17.15
2022-09-15T13:12:57.967Z,17.19
2022-09-15T13:13:57.980Z,17.14
2022-09-15T13:14:57.950Z,17.23
2022-09-15T13:15:57.988Z,17.19
2022-09-15T13:16:57.917Z,17.38
2022-09-15T13:17:57.914Z,17.49
2022-09-15T13:18:57.906Z,17.59
2022-09-15T13:19:57.882Z,17.62
2022-09-15T13:20:57.900Z,17.51
2022-09-15T13:21:57.871Z,17.37
2022-09-15T13:22:57.863Z,17.43
2022-09-15T13:23:57.847Z,17.52
2022-09-15T13:25:01.650Z,17.58
2022-09-15T13:25:57.838Z,17.48
2022-09-15T13:26:57.820Z,17.46
2022-09-15T13:27:57.807Z,17.63
2022-09-15T13:28:58.016Z,17.70
2022-09-15T13:29:57.784Z,17.52
2022-09-15T13:30:57.858Z,17.46
2022-09-15T13:31:57.764Z,17.41
2022-09-15T13:32:57.759Z,17.52
2022-09-15T13:35:05.139Z,17.82
2022-09-15T13:35:57.751Z,17.70
2022-09-15T13:38:21.888Z,17.62
2022-09-15T13:38:57.704Z,17.41
2022-09-15T13:39:57.753Z,17.41
2022-09-15T13:40:57.700Z,17.44
2022-09-15T13:41:57.665Z,17.58
2022-09-15T13:42:57.656Z,17.66
2022-09-15T13:43:57.642Z,17.68
2022-09-15T13:44:57.645Z,17.62
2022-09-15T13:45:57.725Z,17.62
2022-09-15T13:46:57.613Z,17.54
2022-09-15T13:47:57.599Z,17.55
2022-09-15T13:48:57.593Z,17.62
2022-09-15T13:49:57.579Z,17.58
2022-09-15T13:50:57.738Z,17.62
2022-09-15T13:51:57.555Z,17.77
2022-09-15T13:52:57.550Z,18.05
2022-09-15T13:53:57.537Z,18.27
2022-09-15T13:54:57.534Z,18.35
2022-09-15T13:55:57.532Z,18.48
2022-09-15T13:56:57.510Z,18.48
2022-09-15T13:59:03.106Z,18.14
2022-09-15T13:59:57.478Z,18.02
2022-09-15T14:00:57.538Z,18.14
2022-09-15T14:01:57.591Z,18.08
2022-09-15T14:02:57.455Z,17.96
2022-09-15T14:03:57.480Z,18.05
2022-09-15T14:04:57.424Z,18.15
2022-09-15T14:05:57.431Z,18.20
2022-09-15T14:07:00.233Z,18.27
2022-09-15T14:07:59.185Z,18.54
2022-09-15T14:08:57.395Z,18.60
2022-09-15T14:09:57.368Z,18.62
2022-09-15T14:10:57.428Z,18.48
2022-09-15T14:11:57.347Z,18.36
2022-09-15T14:12:57.342Z,18.47
2022-09-15T14:13:57.323Z,18.66
2022-09-15T14:14:57.318Z,18.70
2022-09-15T14:15:57.317Z,18.73
2022-09-15T14:16:57.373Z,18.58
2022-09-15T14:17:57.282Z,18.65
2022-09-15T14:18:57.271Z,18.58
2022-09-15T14:19:57.261Z,18.58
2022-09-15T14:20:57.264Z,18.81
2022-09-15T14:21:58.700Z,19.02
2022-09-15T14:22:57.233Z,18.99
2022-09-15T14:23:57.217Z,18.76
2022-09-15T14:24:57.210Z,18.54
2022-09-15T14:25:57.231Z,18.42
2022-09-15T14:26:57.186Z,18.32
2022-09-15T14:27:57.167Z,18.42
2022-09-15T14:28:57.169Z,18.44
2022-09-15T14:29:57.159Z,18.37
2022-09-15T14:30:57.153Z,18.54
2022-09-15T14:31:57.197Z,18.73
2022-09-15T14:32:57.118Z,18.72
2022-09-15T14:33:57.119Z,18.69
2022-09-15T14:34:57.119Z,18.72
2022-09-15T14:35:57.083Z,18.52
2022-09-15T14:36:57.091Z,18.37
2022-09-15T14:37:57.061Z,18.25
2022-09-15T14:38:57.051Z,18.10
2022-09-15T14:39:57.105Z,17.95
2022-09-15T14:40:57.046Z,17.72
2022-09-15T14:41:57.018Z,17.72
2022-09-15T14:42:57.011Z,17.62
2022-09-15T14:43:56.999Z,17.56
2022-09-15T14:46:05.157Z,17.58
2022-09-15T14:46:56.972Z,17.43
2022-09-15T14:47:56.953Z,17.43
2022-09-15T14:48:56.946Z,17.37
2022-09-15T14:49:56.999Z,17.34
2022-09-15T14:50:56.921Z,17.31
2022-09-15T14:51:56.911Z,17.30
2022-09-15T14:52:56.900Z,17.25
2022-09-15T14:53:56.891Z,17.22
2022-09-15T14:54:56.906Z,17.16
2022-09-15T14:55:56.868Z,17.04
2022-09-15T14:56:56.862Z,17.06
2022-09-15T14:57:56.854Z,16.98
2022-09-15T14:58:56.853Z,17.00
2022-09-15T14:59:56.887Z,17.00
2022-09-15T15:00:56.872Z,16.97
2022-09-15T15:01:56.928Z,16.93
2022-09-15T15:02:56.802Z,16.89
2022-09-15T15:03:56.787Z,16.91
2022-09-15T15:04:56.798Z,16.94
2022-09-15T15:06:02.685Z,16.98
2022-09-15T15:06:56.768Z,16.93
2022-09-15T15:07:56.745Z,16.86
2022-09-15T15:08:56.738Z,16.85
2022-09-15T15:09:56.789Z,16.82
2022-09-15T15:10:56.720Z,16.78
2022-09-15T15:11:56.701Z,16.71
2022-09-15T15:12:56.707Z,16.64
2022-09-15T15:13:56.689Z,16.60
2022-09-15T15:14:56.694Z,16.57
2022-09-15T15:15:56.655Z,16.56
2022-09-15T15:16:56.745Z,16.57
2022-09-15T15:17:56.650Z,16.53
2022-09-15T15:18:56.638Z,16.49
2022-09-15T15:19:56.656Z,16.45
2022-09-15T15:20:56.614Z,16.39
2022-09-15T15:21:56.603Z,16.33
2022-09-15T15:22:56.594Z,16.28
2022-09-15T15:23:56.756Z,16.24
2022-09-15T15:24:56.607Z,16.12
2022-09-15T15:25:56.558Z,16.09
2022-09-15T15:26:56.559Z,16.07
2022-09-15T15:27:56.579Z,16.07
2022-09-15T15:28:56.532Z,15.93
2022-09-15T15:29:56.703Z,15.84
2022-09-15T15:30:56.517Z,15.68
2022-09-15T15:31:56.557Z,15.60
2022-09-15T15:32:56.496Z,15.50
2022-09-15T15:33:56.480Z,15.46
2022-09-15T15:34:56.469Z,15.44
2022-09-15T15:35:56.565Z,15.38
2022-09-15T15:36:56.455Z,15.36
2022-09-15T15:37:56.437Z,15.35
2022-09-15T15:38:56.754Z,15.32
2022-09-15T15:39:56.580Z,15.38
2022-09-15T15:40:56.419Z,15.43
2022-09-15T15:41:56.392Z,15.47
2022-09-15T15:42:59.263Z,15.50
2022-09-15T15:43:56.374Z,15.67
2022-09-15T15:44:56.393Z,15.76
2022-09-15T15:45:56.393Z,15.83
2022-09-15T15:46:56.352Z,15.82
2022-09-15T15:47:56.330Z,15.82
2022-09-15T15:48:56.324Z,15.76
2022-09-15T15:50:12.254Z,15.68
2022-09-15T15:50:56.320Z,15.71
2022-09-15T15:51:56.289Z,15.69
2022-09-15T15:52:56.286Z,15.57
2022-09-15T15:53:56.269Z,15.53
2022-09-15T15:54:56.270Z,15.51
2022-09-15T15:55:56.265Z,15.46
2022-09-15T15:56:56.245Z,15.41
2022-09-15T15:57:56.231Z,15.41
2022-09-15T15:58:56.219Z,15.34
2022-09-15T15:59:56.208Z,15.29
2022-09-15T16:00:56.315Z,15.23
2022-09-15T16:01:56.243Z,15.17
2022-09-15T16:02:56.179Z,15.17
2022-09-15T16:03:56.167Z,15.20
2022-09-15T16:04:56.155Z,15.21
2022-09-15T16:05:56.163Z,15.21
2022-09-15T16:06:56.135Z,15.25
2022-09-15T16:07:56.169Z,15.21
2022-09-15T16:08:56.116Z,15.25
2022-09-15T16:09:56.093Z,15.27
2022-09-15T16:10:56.113Z,15.35
2022-09-15T16:12:56.072Z,15.41
2022-09-15T16:13:56.064Z,15.47
2022-09-15T16:14:56.051Z,15.49
2022-09-15T16:15:56.080Z,15.51
2022-09-15T16:16:57.335Z,15.51
2022-09-15T16:17:56.013Z,15.51
2022-09-15T16:18:56.006Z,15.47
2022-09-15T16:19:55.989Z,15.50
2022-09-15T16:20:55.999Z,15.51
2022-09-15T16:21:55.972Z,15.53
2022-09-15T16:22:55.964Z,15.57
2022-09-15T16:23:55.954Z,15.64
2022-09-15T16:24:55.945Z,15.68
2022-09-15T16:25:55.943Z,15.72
2022-09-15T16:26:55.934Z,15.69
2022-09-15T16:27:56.043Z,15.69
2022-09-15T16:28:55.898Z,15.68
2022-09-15T16:29:55.886Z,15.67
2022-09-15T16:30:55.894Z,15.67
2022-09-15T16:31:55.968Z,15.67
2022-09-15T16:32:55.855Z,15.71
2022-09-15T16:33:55.851Z,15.71
2022-09-15T16:34:55.835Z,15.76
2022-09-15T16:35:55.842Z,15.80
2022-09-15T16:36:55.817Z,15.83
2022-09-15T16:37:55.806Z,15.90
2022-09-15T16:38:55.817Z,15.94
2022-09-15T16:39:55.865Z,15.96
2022-09-15T16:40:55.780Z,15.94
2022-09-15T16:41:55.809Z,15.97
2022-09-15T16:42:55.749Z,15.89
2022-09-15T16:43:55.739Z,15.89
2022-09-15T16:44:55.743Z,15.90
2022-09-15T16:45:55.727Z,15.83
2022-09-15T16:46:55.773Z,15.80
2022-09-15T16:47:55.717Z,15.71
2022-09-15T16:48:55.683Z,15.62
2022-09-15T16:49:55.688Z,15.57
2022-09-15T16:51:19.495Z,15.59
2022-09-15T16:51:55.658Z,15.53
2022-09-15T16:52:55.636Z,15.56
2022-09-15T16:53:55.634Z,15.47
2022-09-15T16:54:55.618Z,15.43
2022-09-15T16:55:55.625Z,15.35
2022-09-15T16:56:55.605Z,15.27
2022-09-15T16:57:55.595Z,15.17
2022-09-15T16:58:59.882Z,15.11
2022-09-15T16:59:55.577Z,15.03
2022-09-15T17:00:55.666Z,15.03
2022-09-15T17:01:55.609Z,15.06
2022-09-15T17:02:55.536Z,15.06
2022-09-15T17:03:55.525Z,15.09
2022-09-15T17:04:55.515Z,15.06
2022-09-15T17:05:55.544Z,15.11
2022-09-15T17:06:55.498Z,15.14
2022-09-15T17:07:55.481Z,15.14
2022-09-15T17:08:55.471Z,15.13
2022-09-15T17:09:55.461Z,15.10
2022-09-15T17:10:55.464Z,15.07
2022-09-15T17:11:55.446Z,15.01
2022-09-15T17:12:55.425Z,14.96
2022-09-15T17:13:55.422Z,15.01
2022-09-15T17:14:55.402Z,15.13
2022-09-15T17:15:55.501Z,15.25
2022-09-15T17:16:55.384Z,15.29
2022-09-15T17:17:55.375Z,15.28
2022-09-15T17:18:55.358Z,15.28
2022-09-15T17:19:55.360Z,15.23
2022-09-15T17:20:55.350Z,15.20
2022-09-15T17:21:55.335Z,15.11
2022-09-15T17:22:55.357Z,15.11
2022-09-15T17:23:55.313Z,15.10
2022-09-15T17:24:55.300Z,15.10
2022-09-15T17:25:55.303Z,15.11
2022-09-15T17:26:55.280Z,15.13
2022-09-15T17:27:55.276Z,15.13
2022-09-15T17:28:55.255Z,15.06
2022-09-15T17:29:55.250Z,15.02
2022-09-15T17:30:55.305Z,14.96
2022-09-15T17:31:55.229Z,14.94
2022-09-15T17:32:55.212Z,14.92
2022-09-15T17:33:55.208Z,14.88
2022-09-15T17:34:55.188Z,14.77
2022-09-15T17:35:55.195Z,14.80
2022-09-15T17:36:55.169Z,14.89
2022-09-15T17:37:55.195Z,14.89
2022-09-15T17:38:55.153Z,14.91
2022-09-15T17:39:58.784Z,15.01
2022-09-15T17:40:55.186Z,14.98
2022-09-15T17:41:55.160Z,14.94
2022-09-15T17:42:55.103Z,14.96
2022-09-15T17:43:55.251Z,15.01
2022-09-15T17:44:55.088Z,15.02